Time;durP1;ratioP1;P1;durP2;ratioP2;P2;SDS_P1;SDS_P2;PMS_P1;PMS_P2;Temp;Humidity;BMP_temperature;BMP_pressure;BME280_temperature;BME280_humidity;BME280_pressure;Samples;Min_cycle;Max_cycle;Signal;HPM_P1;HPM_P2
2021/07/17 00:00:24;;;;;;;;;15.00;15.00;;;;;20.63;52.10;102013.91;5101625;27;45220;-50
2021/07/17 00:02:49;;;;;;;;;20.50;16.75;;;;;20.62;52.13;102017.50;5101737;27;45459;-49
2021/07/17 00:05:16;;;;;;;;;18.50;17.50;;;;;20.58;52.10;102011.41;5101685;27;45415;-51
2021/07/17 00:07:43;;;;;;;;;10.75;8.75;;;;;20.56;51.73;102005.22;5101516;27;46116;-51
2021/07/17 00:10:12;;;;;;;;;13.75;12.75;;;;;20.52;51.64;102003.59;5083243;27;45523;-50
2021/07/17 00:12:38;;;;;;;;;16.25;12.25;;;;;20.51;51.77;102009.88;5101370;27;45252;-47
2021/07/17 00:15:04;;;;;;;;;18.00;15.50;;;;;20.49;51.73;102013.53;5101349;27;45411;-48
2021/07/17 00:17:30;;;;;;;;;13.50;11.50;;;;;20.45;52.19;102013.66;5101191;27;46208;-49
2021/07/17 00:19:55;;;;;;;;;14.75;13.25;;;;;20.43;52.09;102012.81;5101126;27;45220;-48
2021/07/17 00:22:21;;;;;;;;;15.75;12.75;;;;;20.41;51.70;102009.31;5101494;27;45153;-48
2021/07/17 00:24:46;;;;;;;;;14.00;13.50;;;;;20.38;51.75;102013.94;5079160;28;45517;-50
2021/07/17 00:27:11;;;;;;;;;13.75;12.50;;;;;20.36;52.27;102013.09;5097525;27;45227;-50
2021/07/17 00:29:37;;;;;;;;;16.25;13.75;;;;;20.34;51.85;102006.94;5101011;27;45284;-50
2021/07/17 00:32:02;;;;;;;;;14.50;13.75;;;;;20.33;52.03;102013.22;5101161;27;45332;-50
2021/07/17 00:34:28;;;;;;;;;15.25;13.00;;;;;20.26;52.06;102005.41;5079625;28;45519;-49
2021/07/17 00:36:53;;;;;;;;;14.75;12.25;;;;;20.23;52.21;102007.31;5091481;27;45223;-51
2021/07/17 00:39:18;;;;;;;;;12.00;11.50;;;;;20.18;51.89;102006.63;5101157;27;45314;-50
2021/07/17 00:41:44;;;;;;;;;16.75;15.25;;;;;20.18;52.50;102015.47;5101119;27;45382;-48
2021/07/17 00:44:09;;;;;;;;;16.25;15.25;;;;;20.16;52.00;102005.78;5101184;27;45445;-49
2021/07/17 00:46:36;;;;;;;;;16.00;13.75;;;;;20.14;52.37;102006.69;5100633;27;46267;-49
2021/07/17 00:49:02;;;;;;;;;19.50;14.75;;;;;20.11;52.05;102012.16;5100953;27;45406;-49
2021/07/17 00:51:27;;;;;;;;;15.00;13.00;;;;;20.09;52.04;102008.66;5100978;27;45429;-49
2021/07/17 00:53:54;;;;;;;;;14.50;14.50;;;;;20.07;52.23;102006.97;5100936;27;45475;-50
2021/07/17 00:56:20;;;;;;;;;16.50;15.00;;;;;20.06;52.38;102016.78;5100786;27;47102;-49
2021/07/17 00:58:48;;;;;;;;;14.50;12.75;;;;;20.01;52.25;102010.69;5100783;27;45208;-48
2021/07/17 01:01:14;;;;;;;;;17.00;13.00;;;;;20.02;52.34;102017.78;5078867;28;45271;-47
2021/07/17 01:03:40;;;;;;;;;18.25;14.75;;;;;19.99;52.39;102012.56;5086691;27;45283;-50
2021/07/17 01:06:05;;;;;;;;;14.00;13.00;;;;;19.96;52.15;102008.22;5098032;27;46318;-48
2021/07/17 01:08:31;;;;;;;;;13.75;12.75;;;;;19.95;52.31;102010.94;5100709;27;45361;-50
2021/07/17 01:10:56;;;;;;;;;17.00;15.00;;;;;19.93;52.59;102004.78;5100777;27;45344;-50
2021/07/17 01:13:21;;;;;;;;;13.50;12.00;;;;;19.89;52.65;102011.16;5100517;27;45413;-51
2021/07/17 01:15:47;;;;;;;;;17.75;14.75;;;;;19.87;52.36;102021.84;5100407;27;46142;-50
2021/07/17 01:18:13;;;;;;;;;12.25;10.00;;;;;19.85;52.54;102015.69;5078967;28;45383;-51
2021/07/17 01:20:40;;;;;;;;;14.50;14.00;;;;;19.83;52.27;102016.69;5097442;27;45445;-50
2021/07/17 01:23:07;;;;;;;;;17.00;14.00;;;;;19.81;52.97;102012.22;5100603;27;45244;-51
2021/07/17 01:25:34;;;;;;;;;19.75;16.50;;;;;19.79;52.67;102022.06;5100311;27;46162;-47
2021/07/17 01:28:00;;;;;;;;;16.00;15.50;;;;;19.75;53.12;102020.44;5100260;27;45271;-50
2021/07/17 01:30:29;;;;;;;;;19.00;15.50;;;;;19.73;52.98;102011.59;5100086;27;45519;-51
2021/07/17 01:32:54;;;;;;;;;17.75;17.50;;;;;19.70;52.52;102009.03;5100519;27;45482;-51
2021/07/17 01:35:20;;;;;;;;;16.50;15.00;;;;;19.68;53.02;102008.19;5100346;27;45215;-49
2021/07/17 01:37:45;;;;;;;;;17.25;17.25;;;;;19.66;52.73;102007.41;5095033;27;45467;-47
2021/07/17 01:40:18;;;;;;;;;15.75;12.75;;;;;19.62;52.82;102003.06;5085687;27;46034;-50
2021/07/17 01:42:44;;;;;;;;;15.25;14.50;;;;;19.61;53.03;102004.00;5103952;27;45290;-51
2021/07/17 01:45:11;;;;;;;;;18.25;15.50;;;;;19.56;52.93;102004.16;5081634;28;48083;-49
2021/07/17 01:47:36;;;;;;;;;21.50;18.00;;;;;19.55;52.65;102002.41;5096570;27;45411;-50
2021/07/17 01:50:04;;;;;;;;;14.75;14.50;;;;;19.49;52.76;101992.78;5103528;27;45453;-50
2021/07/17 01:52:29;;;;;;;;;15.25;15.25;;;;;19.47;53.22;101997.31;5103992;27;45300;-51
2021/07/17 01:54:54;;;;;;;;;16.75;14.25;;;;;19.45;53.47;101996.47;5103618;27;45328;-50
2021/07/17 01:57:20;;;;;;;;;15.50;13.25;;;;;19.42;53.41;101996.59;5085181;27;45382;-51
2021/07/17 01:59:45;;;;;;;;;17.75;16.00;;;;;19.43;53.24;102000.13;5103419;27;45322;-47
2021/07/17 02:02:14;;;;;;;;;14.50;14.25;;;;;19.39;53.32;102002.00;5103761;27;45260;-46
2021/07/17 02:04:39;;;;;;;;;21.25;16.50;;;;;19.38;52.77;102002.91;5103293;27;45242;-48
2021/07/17 02:07:06;;;;;;;;;15.25;13.25;;;;;19.37;53.33;102005.66;5103649;27;45216;-50
2021/07/17 02:09:35;;;;;;;;;17.50;15.25;;;;;19.34;53.21;101998.63;5103457;27;45260;-49
2021/07/17 02:12:04;;;;;;;;;17.75;14.25;;;;;19.32;52.99;102003.16;5103185;27;45574;-52
2021/07/17 02:14:37;;;;;;;;;17.00;15.25;;;;;19.30;53.31;101999.63;5102989;27;45481;-48
2021/07/17 02:17:03;;;;;;;;;17.00;14.00;;;;;19.27;53.31;101997.06;5103335;27;45288;-52
2021/07/17 02:19:29;;;;;;;;;17.25;16.75;;;;;19.16;53.62;101979.63;5103237;27;45418;-52
2021/07/17 02:21:54;;;;;;;;;17.00;16.50;;;;;19.23;53.49;102001.63;5103107;27;45489;-50
2021/07/17 02:24:20;;;;;;;;;21.00;16.00;;;;;19.21;53.56;101995.47;5103461;27;45197;-51
2021/07/17 02:26:47;;;;;;;;;16.75;15.00;;;;;19.19;53.82;101993.78;5084745;27;45177;-49
2021/07/17 02:29:13;;;;;;;;;20.25;19.25;;;;;19.15;53.65;101996.50;5103251;27;45291;-50
2021/07/17 02:31:41;;;;;;;;;15.50;13.00;;;;;19.14;53.82;101988.56;5081630;27;45390;-47
2021/07/17 02:34:10;;;;;;;;;17.50;14.75;;;;;19.10;53.59;101990.44;5103209;27;47050;-47
2021/07/17 02:36:36;;;;;;;;;15.50;14.00;;;;;19.08;53.71;101988.75;5095460;27;45328;-50
2021/07/17 02:39:03;;;;;;;;;22.25;15.75;;;;;19.04;53.88;101987.13;5101958;27;45316;-47
2021/07/17 02:41:29;;;;;;;;;26.25;21.25;;;;;19.01;54.11;101990.75;5084300;27;45422;-48
2021/07/17 02:43:55;;;;;;;;;21.00;17.75;;;;;19.01;53.57;101990.75;5102737;27;46185;-51
2021/07/17 02:46:21;;;;;;;;;18.25;15.50;;;;;18.98;53.74;101990.81;5084148;27;45256;-47
2021/07/17 02:48:46;;;;;;;;;18.00;15.75;;;;;18.98;53.79;101993.47;5102663;27;45462;-51
2021/07/17 02:51:12;;;;;;;;;16.00;14.00;;;;;18.96;53.81;101992.66;5082113;27;45497;-49
2021/07/17 02:53:37;;;;;;;;;15.00;15.00;;;;;18.95;53.58;101991.78;5084327;27;47902;-50
2021/07/17 02:56:03;;;;;;;;;20.00;17.00;;;;;18.93;54.03;101992.75;5102623;27;45349;-50
2021/07/17 02:58:28;;;;;;;;;16.25;13.75;;;;;18.91;53.97;101983.94;5084327;27;45392;-46
2021/07/17 03:00:54;;;;;;;;;21.00;15.50;;;;;18.89;54.18;101988.41;5102416;27;45425;-47
2021/07/17 03:03:21;;;;;;;;;15.50;14.00;;;;;18.88;53.94;101992.88;5102664;27;46199;-50
2021/07/17 03:05:47;;;;;;;;;20.75;14.75;;;;;18.84;53.96;101984.09;5084273;27;45248;-51
2021/07/17 03:08:15;;;;;;;;;21.25;17.00;;;;;18.83;54.23;101993.00;5102646;27;45432;-49
2021/07/17 03:10:41;;;;;;;;;19.25;17.75;;;;;18.84;54.06;101999.19;5102356;27;45523;-49
2021/07/17 03:13:07;;;;;;;;;17.00;16.00;;;;;18.81;54.02;101994.81;5102311;27;46176;-49
2021/07/17 03:15:32;;;;;;;;;20.25;18.25;;;;;18.81;54.30;102007.28;5102140;27;45366;-46
2021/07/17 03:17:57;;;;;;;;;22.00;17.50;;;;;18.77;54.43;102002.97;5084215;27;45497;-50
2021/07/17 03:20:23;;;;;;;;;19.75;18.25;;;;;18.77;54.06;102008.28;5102068;27;45314;-51
2021/07/17 03:22:48;;;;;;;;;21.50;18.75;;;;;18.73;54.39;102004.84;5083891;27;47308;-52
2021/07/17 03:25:14;;;;;;;;;19.00;18.00;;;;;18.72;54.42;101997.75;5102333;27;45357;-47
2021/07/17 03:27:39;;;;;;;;;15.50;13.75;;;;;18.71;54.24;102003.13;5102285;27;45519;-49
2021/07/17 03:30:06;;;;;;;;;21.00;18.50;;;;;18.69;54.49;102000.50;5101878;27;45370;-50
2021/07/17 03:32:32;;;;;;;;;21.00;19.75;;;;;18.64;54.21;101991.75;5083828;27;45342;-50
2021/07/17 03:34:58;;;;;;;;;23.00;18.00;;;;;18.67;54.26;102003.19;5102053;27;45252;-50
2021/07/17 03:37:23;;;;;;;;;23.50;18.75;;;;;18.63;54.25;101992.72;5094774;27;45200;-50
2021/07/17 03:39:49;;;;;;;;;22.00;17.75;;;;;18.65;54.54;102004.16;5101998;27;45299;-51
2021/07/17 03:42:15;;;;;;;;;19.25;16.25;;;;;18.64;54.43;101999.75;5101905;27;45338;-49
2021/07/17 03:44:40;;;;;;;;;20.50;19.00;;;;;18.63;54.27;101996.22;5080947;27;45346;-50
2021/07/17 03:47:06;;;;;;;;;18.25;18.00;;;;;18.62;54.44;101991.81;5101947;27;45283;-48
2021/07/17 03:49:31;;;;;;;;;21.75;17.75;;;;;18.61;54.46;101994.53;5101820;27;45354;-52
2021/07/17 03:51:57;;;;;;;;;18.50;16.25;;;;;18.59;54.43;101991.91;5101696;27;45294;-48
2021/07/17 03:54:22;;;;;;;;;21.50;20.75;;;;;18.58;54.40;101998.16;5101807;27;45322;-50
2021/07/17 03:56:48;;;;;;;;;19.25;17.75;;;;;18.57;54.69;101995.53;5101806;27;45714;-51
2021/07/17 03:59:13;;;;;;;;;18.00;15.25;;;;;18.55;54.76;102005.34;5101331;27;45446;-51
2021/07/17 04:01:38;;;;;;;;;22.75;18.50;;;;;18.52;54.66;102004.50;5079396;28;48262;-49
2021/07/17 04:04:04;;;;;;;;;18.25;16.75;;;;;18.51;54.64;102002.78;5094842;27;45248;-49
2021/07/17 04:06:31;;;;;;;;;18.00;14.25;;;;;18.51;54.93;102008.09;5102058;27;45492;-47
2021/07/17 04:08:56;;;;;;;;;22.50;19.00;;;;;18.50;54.69;102010.78;5101441;27;45541;-50
2021/07/17 04:11:21;;;;;;;;;22.25;18.25;;;;;18.48;54.60;102007.31;5079601;28;46969;-49
2021/07/17 04:13:47;;;;;;;;;17.25;16.00;;;;;18.45;54.59;102010.94;5094744;27;45177;-51
2021/07/17 04:16:12;;;;;;;;;23.25;16.50;;;;;18.45;54.94;102010.94;5101523;27;45239;-50
2021/07/17 04:18:37;;;;;;;;;26.75;24.50;;;;;18.44;54.52;102011.84;5101542;27;45232;-50
2021/07/17 04:21:03;;;;;;;;;21.00;15.75;;;;;18.40;54.69;102007.53;5082657;27;48664;-49
2021/07/17 04:23:28;;;;;;;;;23.00;19.25;;;;;18.41;54.75;102014.56;5101453;27;45177;-47
2021/07/17 04:25:54;;;;;;;;;21.50;19.50;;;;;18.40;54.79;102015.50;5066190;27;45466;-48
2021/07/17 04:28:19;;;;;;;;;25.25;20.50;;;;;18.40;54.85;102006.63;5100998;27;45508;-48
2021/07/17 04:30:45;;;;;;;;;20.50;16.25;;;;;18.37;55.08;102006.72;5100692;27;45405;-52
2021/07/17 04:33:10;;;;;;;;;28.50;19.75;;;;;18.38;54.82;102008.44;5101113;27;45330;-50
2021/07/17 04:35:35;;;;;;;;;23.50;18.25;;;;;18.35;54.96;102012.06;5101060;27;45240;-50
2021/07/17 04:38:01;;;;;;;;;25.25;22.75;;;;;18.29;55.17;101998.97;5093969;27;45536;-47
2021/07/17 04:40:26;;;;;;;;;28.00;23.75;;;;;18.35;54.96;102014.72;5100852;27;45444;-51
2021/07/17 04:42:51;;;;;;;;;21.75;17.50;;;;;18.32;55.27;102017.47;5079242;28;45275;-49
2021/07/17 04:45:17;;;;;;;;;20.00;20.00;;;;;18.29;55.39;102015.78;5100455;27;45320;-46
2021/07/17 04:47:42;;;;;;;;;22.25;21.00;;;;;18.31;54.96;102021.06;5100987;27;45504;-49
2021/07/17 04:50:08;;;;;;;;;22.00;19.25;;;;;18.30;55.11;102019.31;5100694;27;45399;-47
2021/07/17 04:52:34;;;;;;;;;16.75;16.25;;;;;18.28;55.43;102016.69;5101002;27;45302;-49
2021/07/17 04:54:59;;;;;;;;;22.50;20.25;;;;;18.26;54.98;102018.50;5100848;27;45295;-50
2021/07/17 04:57:24;;;;;;;;;22.00;20.00;;;;;18.28;55.14;102023.81;5100754;27;45516;-50
2021/07/17 04:59:50;;;;;;;;;23.50;18.25;;;;;18.28;55.28;102031.78;5100422;27;46457;-50
2021/07/17 05:02:15;;;;;;;;;17.75;16.50;;;;;18.28;55.06;102032.66;5100757;27;45305;-49
2021/07/17 05:04:40;;;;;;;;;20.50;15.75;;;;;18.29;55.32;102028.22;5100786;27;45424;-49
2021/07/17 05:07:06;;;;;;;;;23.00;20.00;;;;;18.27;55.44;102027.38;5100787;27;45174;-50
2021/07/17 05:09:31;;;;;;;;;20.75;19.25;;;;;18.28;55.63;102031.78;5081913;27;46494;-49
2021/07/17 05:11:56;;;;;;;;;18.50;16.25;;;;;18.28;55.27;102037.13;5100293;27;45229;-48
2021/07/17 05:14:22;;;;;;;;;23.25;19.25;;;;;18.29;55.59;102030.88;5100498;27;45305;-50
2021/07/17 05:16:47;;;;;;;;;23.00;17.00;;;;;18.28;55.47;102027.34;5100501;27;45198;-50
2021/07/17 05:19:12;;;;;;;;;26.00;22.50;;;;;18.30;55.45;102029.94;5078443;28;46086;-46
2021/07/17 05:21:38;;;;;;;;;21.25;16.00;;;;;18.30;55.30;102029.94;5091965;27;45278;-49
2021/07/17 05:24:04;;;;;;;;;20.75;17.75;;;;;18.30;55.42;102025.50;5100477;27;45397;-50
2021/07/17 05:26:30;;;;;;;;;23.50;22.00;;;;;18.30;55.72;102028.19;5100610;27;45381;-50
2021/07/17 05:28:55;;;;;;;;;19.50;16.50;;;;;18.30;55.26;102024.63;5099775;27;45384;-50
2021/07/17 05:31:20;;;;;;;;;25.75;20.25;;;;;18.31;55.81;102016.63;5100219;27;45386;-50
2021/07/17 05:33:46;;;;;;;;;21.75;18.75;;;;;18.34;55.80;102026.31;5100357;27;45798;-50
2021/07/17 05:36:11;;;;;;;;;20.75;18.75;;;;;18.35;55.83;102026.25;5095164;27;45322;-50
2021/07/17 05:38:37;;;;;;;;;22.00;18.75;;;;;18.37;55.76;102028.88;5098192;27;45953;-50
2021/07/17 05:41:02;;;;;;;;;26.50;20.25;;;;;18.35;55.57;102015.63;5100352;27;45327;-47
2021/07/17 05:43:28;;;;;;;;;22.50;18.25;;;;;18.38;55.73;102022.66;5100241;27;45331;-49
2021/07/17 05:45:54;;;;;;;;;22.25;21.25;;;;;18.40;56.19;102027.91;5100109;27;45329;-50
2021/07/17 05:48:21;;;;;;;;;23.00;21.75;;;;;18.41;55.84;102027.88;5099937;27;46207;-46
2021/07/17 05:50:48;;;;;;;;;25.25;21.25;;;;;18.43;56.08;102027.84;5100088;27;45320;-51
2021/07/17 05:53:14;;;;;;;;;20.25;20.00;;;;;18.44;56.05;102030.47;5100161;27;45251;-49
2021/07/17 05:55:39;;;;;;;;;26.00;20.50;;;;;18.45;55.96;102024.25;5100056;27;45457;-47
2021/07/17 05:58:05;;;;;;;;;22.50;19.75;;;;;18.50;55.76;102026.75;5099617;27;46253;-47
2021/07/17 06:00:30;;;;;;;;;20.50;19.50;;;;;18.53;56.14;102032.00;5099745;27;45307;-49
2021/07/17 06:02:55;;;;;;;;;22.75;18.25;;;;;18.55;56.15;102024.84;5099969;27;45382;-48
2021/07/17 06:05:21;;;;;;;;;25.00;21.25;;;;;18.57;56.16;102025.69;5100029;27;45391;-51
2021/07/17 06:07:46;;;;;;;;;25.00;21.75;;;;;18.58;56.18;102029.19;5099724;27;45251;-51
2021/07/17 06:10:12;;;;;;;;;20.75;19.75;;;;;18.61;56.08;102031.78;5099718;27;45367;-48
2021/07/17 06:12:38;;;;;;;;;22.75;21.50;;;;;18.65;56.11;102030.78;5078162;28;45485;-47
2021/07/17 06:15:05;;;;;;;;;24.50;21.50;;;;;18.65;56.25;102025.47;5090594;27;45468;-50
2021/07/17 06:17:31;;;;;;;;;20.00;17.25;;;;;18.70;56.09;102033.31;5099447;27;46007;-51
2021/07/17 06:19:56;;;;;;;;;21.25;20.50;;;;;18.74;56.36;102032.31;5099469;27;45259;-49
2021/07/17 06:22:21;;;;;;;;;26.25;20.50;;;;;18.76;56.15;102028.69;5099853;27;45216;-47
2021/07/17 06:24:47;;;;;;;;;18.00;17.50;;;;;18.81;55.97;102031.25;5102987;27;45659;-48
2021/07/17 06:27:12;;;;;;;;;24.00;20.25;;;;;18.84;56.46;102032.03;5102978;27;47298;-47
2021/07/17 06:29:37;;;;;;;;;22.50;18.50;;;;;18.87;56.17;102031.06;5102853;27;45134;-50
2021/07/17 06:32:04;;;;;;;;;25.25;23.25;;;;;18.92;56.52;102033.63;5103056;27;45213;-52
2021/07/17 06:34:29;;;;;;;;;28.25;22.75;;;;;18.96;56.33;102038.81;5103281;27;45481;-52
2021/07/17 06:36:55;;;;;;;;;27.00;21.25;;;;;19.01;55.92;102046.69;5095598;27;45473;-49
2021/07/17 06:39:20;;;;;;;;;20.75;19.00;;;;;19.05;56.25;102051.00;5102997;27;45333;-51
2021/07/17 06:41:46;;;;;;;;;29.75;27.25;;;;;19.09;56.07;102052.63;5102879;27;45424;-48
2021/07/17 06:44:11;;;;;;;;;23.25;21.75;;;;;19.15;56.29;102057.78;5084645;27;45323;-48
2021/07/17 06:46:36;;;;;;;;;24.75;21.75;;;;;19.20;56.25;102054.13;5102566;27;46564;-51
2021/07/17 06:49:02;;;;;;;;;22.25;22.00;;;;;19.23;55.78;102056.69;5102827;27;45389;-49
2021/07/17 06:51:27;;;;;;;;;21.25;20.25;;;;;19.28;56.49;102053.00;5102855;27;45298;-51
2021/07/17 06:53:53;;;;;;;;;20.25;17.75;;;;;19.32;56.01;102051.13;5102817;27;45323;-51
2021/07/17 06:56:20;;;;;;;;;25.25;23.00;;;;;19.37;56.33;102051.84;5081005;28;45349;-51
2021/07/17 06:58:46;;;;;;;;;30.75;22.25;;;;;19.43;56.29;102049.00;5092684;27;45291;-49
2021/07/17 07:01:11;;;;;;;;;26.00;25.50;;;;;19.47;56.38;102050.63;5102450;27;45172;-47
2021/07/17 07:03:36;;;;;;;;;28.00;25.75;;;;;19.51;56.69;102050.53;5102705;27;45474;-51
2021/07/17 07:06:02;;;;;;;;;21.00;21.00;;;;;19.56;56.14;102051.25;5102488;27;46310;-50
2021/07/17 07:08:27;;;;;;;;;23.75;22.75;;;;;19.61;56.37;102054.69;5102663;27;45313;-49
2021/07/17 07:10:53;;;;;;;;;28.75;22.50;;;;;19.67;56.18;102054.44;5102427;27;45149;-50
2021/07/17 07:13:18;;;;;;;;;26.25;23.25;;;;;19.71;56.52;102057.91;5102471;27;45157;-51
2021/07/17 07:15:44;;;;;;;;;25.75;24.00;;;;;19.75;56.48;102052.44;5102035;27;45222;-51
2021/07/17 07:18:12;;;;;;;;;26.75;22.75;;;;;19.81;56.47;102059.38;5102479;27;45349;-50
2021/07/17 07:20:37;;;;;;;;;23.50;20.75;;;;;19.87;56.04;102067.19;5102153;27;45414;-52
2021/07/17 07:23:03;;;;;;;;;25.00;22.00;;;;;19.92;56.06;102067.03;5102197;27;45511;-52
2021/07/17 07:25:28;;;;;;;;;23.50;21.50;;;;;19.97;56.19;102068.66;5102098;27;46102;-50
2021/07/17 07:27:54;;;;;;;;;22.25;22.00;;;;;20.02;56.07;102071.16;5101949;27;45309;-51
2021/07/17 07:30:19;;;;;;;;;27.50;22.00;;;;;20.07;56.37;102074.53;5101632;27;45356;-49
2021/07/17 07:32:45;;;;;;;;;27.00;24.75;;;;;20.12;56.24;102077.06;5102320;27;45224;-52
2021/07/17 07:35:10;;;;;;;;;25.00;23.50;;;;;20.19;56.41;102083.06;5100691;27;46193;-53
2021/07/17 07:37:36;;;;;;;;;21.50;18.50;;;;;20.22;55.93;102082.97;5083652;27;45258;-52
2021/07/17 07:40:02;;;;;;;;;27.50;25.00;;;;;20.27;56.50;102081.88;5083774;27;45233;-52
2021/07/17 07:42:27;;;;;;;;;26.50;22.75;;;;;20.32;55.94;102075.53;5101999;27;45330;-53
2021/07/17 07:44:53;;;;;;;;;30.75;25.75;;;;;20.39;56.45;102083.25;5101518;27;45819;-55
2021/07/17 07:47:19;;;;;;;;;24.75;21.50;;;;;20.41;56.28;102078.72;5083319;27;46544;-52
2021/07/17 07:49:45;;;;;;;;;27.00;24.50;;;;;20.50;56.53;102076.69;5101829;27;45228;-53
2021/07/17 07:52:11;;;;;;;;;25.50;22.75;;;;;20.55;56.46;102085.41;5101919;27;45365;-54
2021/07/17 07:54:36;;;;;;;;;28.00;22.25;;;;;20.59;55.83;102081.69;5082327;27;46641;-54
2021/07/17 07:57:02;;;;;;;;;24.75;22.00;;;;;20.65;55.98;102089.47;5101697;27;45308;-52
2021/07/17 07:59:28;;;;;;;;;24.50;24.50;;;;;20.71;56.46;102099.13;5083172;27;45469;-54
2021/07/17 08:01:53;;;;;;;;;26.00;24.25;;;;;20.74;56.12;102091.88;5101649;27;45356;-55
2021/07/17 08:04:18;;;;;;;;;29.00;22.25;;;;;20.80;55.87;102092.59;5082190;27;47138;-57
2021/07/17 08:06:44;;;;;;;;;26.25;23.75;;;;;20.85;55.72;102104.81;5101673;27;45349;-56
2021/07/17 08:09:09;;;;;;;;;28.75;22.75;;;;;20.89;56.24;102100.25;5101543;27;45314;-56
2021/07/17 08:11:34;;;;;;;;;26.50;20.25;;;;;20.93;55.80;102100.09;5101624;27;45243;-57
2021/07/17 08:14:00;;;;;;;;;25.25;23.00;;;;;21.01;55.96;102093.59;5101321;27;46467;-55
2021/07/17 08:16:25;;;;;;;;;26.75;19.00;;;;;21.02;56.27;102085.53;5101268;27;45236;-60
2021/07/17 08:18:50;;;;;;;;;22.75;19.25;;;;;21.08;55.84;102087.97;5100213;27;45317;-56
2021/07/17 08:21:16;;;;;;;;;24.00;21.00;;;;;21.13;55.93;102082.47;5101201;27;45212;-56
2021/07/17 08:23:41;;;;;;;;;22.75;22.00;;;;;21.16;56.22;102077.00;5101275;27;46142;-55
2021/07/17 08:26:06;;;;;;;;;21.00;20.00;;;;;21.20;56.17;102088.44;5101353;27;45232;-57
2021/07/17 08:28:32;;;;;;;;;26.50;23.50;;;;;21.27;55.94;102087.28;5101111;27;45212;-55
2021/07/17 08:30:57;;;;;;;;;22.25;19.75;;;;;21.30;55.93;102088.97;5100920;27;45383;-54
2021/07/17 08:33:22;;;;;;;;;32.25;27.25;;;;;21.33;55.91;102080.81;5100992;27;46041;-54
2021/07/17 08:35:48;;;;;;;;;29.00;24.00;;;;;21.39;56.11;102078.78;5099300;27;45455;-55
2021/07/17 08:38:13;;;;;;;;;30.50;27.25;;;;;21.45;56.33;102083.03;5095969;27;45132;-55
2021/07/17 08:40:39;;;;;;;;;23.25;21.75;;;;;21.48;55.86;102084.72;5101254;27;45232;-55
2021/07/17 08:43:04;;;;;;;;;25.50;24.00;;;;;21.54;55.73;102087.16;5100751;27;46064;-55
2021/07/17 08:45:29;;;;;;;;;26.75;24.50;;;;;21.58;56.23;102088.78;5100603;27;45350;-56
2021/07/17 08:47:56;;;;;;;;;27.50;26.00;;;;;21.62;55.96;102095.75;5100947;27;45275;-56
2021/07/17 08:50:26;;;;;;;;;33.75;30.75;;;;;21.68;56.00;102089.31;5100889;27;45280;-54
2021/07/17 08:52:57;;;;;;;;;29.75;24.25;;;;;21.71;56.07;102092.72;5100773;27;47010;-55
2021/07/17 08:55:26;;;;;;;;;23.25;20.75;;;;;21.79;55.67;102100.44;5100827;27;45382;-53
2021/07/17 08:57:52;;;;;;;;;31.75;28.25;;;;;21.84;55.96;102094.91;5100553;27;45227;-53
2021/07/17 09:00:22;;;;;;;;;29.75;28.00;;;;;21.90;55.84;102086.66;5100628;27;45269;-57
2021/07/17 09:02:51;;;;;;;;;30.25;25.00;;;;;21.95;55.57;102079.31;5100219;27;48529;-58
2021/07/17 09:05:18;;;;;;;;;26.25;24.25;;;;;22.01;55.79;102080.84;5100723;27;45480;-53
2021/07/17 09:07:44;;;;;;;;;24.00;23.00;;;;;22.05;55.87;102071.78;5100606;27;45224;-53
2021/07/17 09:10:52;;;;;;;;;23.75;23.25;;;;;22.11;56.11;102071.47;5100338;27;45540;-53
2021/07/17 09:13:26;;;;;;;;;28.50;21.25;;;;;22.19;56.01;102073.88;5037187;28;45605;-54
2021/07/17 09:15:51;;;;;;;;;29.00;25.75;;;;;22.23;55.80;102078.16;5071874;28;45326;-50
2021/07/17 09:18:28;;;;;;;;;29.50;25.00;;;;;22.28;55.90;102078.81;5074331;27;45339;-51
2021/07/17 09:21:04;;;;;;;;;29.50;25.50;;;;;22.34;55.65;102075.88;5100354;27;45273;-50
2021/07/17 09:23:35;;;;;;;;;24.75;23.75;;;;;22.39;55.47;102071.22;5100448;27;47235;-51
2021/07/17 09:26:08;;;;;;;;;22.00;20.50;;;;;22.46;55.95;102070.97;5100287;27;45400;-48
2021/07/17 09:28:34;;;;;;;;;29.25;23.50;;;;;22.53;55.70;102072.44;5100063;27;45668;-49
2021/07/17 09:31:00;;;;;;;;;26.50;24.25;;;;;22.59;55.30;102072.19;5100128;27;45304;-51
2021/07/17 09:33:29;;;;;;;;;29.00;24.75;;;;;22.64;55.71;102071.94;5100157;27;45334;-50
2021/07/17 09:35:57;;;;;;;;;24.75;21.75;;;;;22.69;55.44;102068.16;5097428;27;45347;-49
2021/07/17 09:38:25;;;;;;;;;27.25;23.25;;;;;22.76;55.48;102071.41;5096598;27;45335;-48
2021/07/17 09:41:02;;;;;;;;;28.50;23.00;;;;;22.83;55.79;102069.31;5100218;27;45253;-52
2021/07/17 09:43:38;;;;;;;;;26.75;25.25;;;;;22.88;55.30;102068.19;5099818;27;46129;-48
2021/07/17 09:46:31;;;;;;;;;25.00;25.00;;;;;22.97;55.48;102066.91;5099856;27;45354;-51
2021/07/17 09:49:01;;;;;;;;;22.75;21.75;;;;;23.01;55.56;102060.44;5097566;27;45322;-52
2021/07/17 09:51:34;;;;;;;;;23.75;21.00;;;;;23.11;55.18;102063.59;5078387;28;45508;-55
2021/07/17 09:54:01;;;;;;;;;26.25;22.00;;;;;23.17;55.12;102062.47;5091696;27;45502;-49
2021/07/17 09:56:29;;;;;;;;;23.50;20.75;;;;;23.24;55.34;102066.59;5100012;27;45245;-51
2021/07/17 09:58:59;;;;;;;;;23.75;22.00;;;;;23.31;55.03;102061.81;5101996;27;45241;-50
2021/07/17 10:01:24;;;;;;;;;27.00;23.50;;;;;23.34;55.15;102062.53;5103223;27;45484;-47
2021/07/17 10:03:58;;;;;;;;;23.50;22.25;;;;;23.39;54.96;102067.69;5103351;27;45216;-55
2021/07/17 10:06:34;;;;;;;;;23.50;21.75;;;;;23.44;54.83;102070.16;5103631;27;45555;-54
2021/07/17 10:09:01;;;;;;;;;23.00;21.25;;;;;23.49;54.93;102070.78;5103292;27;45379;-52
2021/07/17 10:11:28;;;;;;;;;23.50;20.75;;;;;23.53;54.76;102070.59;5085130;27;45386;-52
2021/07/17 10:13:54;;;;;;;;;23.50;22.25;;;;;23.56;54.73;102069.56;5102960;27;45279;-51
2021/07/17 10:16:22;;;;;;;;;23.00;20.75;;;;;23.59;54.83;102069.41;5102989;27;45255;-51
2021/07/17 10:18:49;;;;;;;;;17.50;17.25;;;;;23.62;54.53;102071.94;5103361;27;45389;-51
2021/07/17 10:21:15;;;;;;;;;22.75;19.50;;;;;23.65;54.58;102063.75;5102848;27;45657;-48
2021/07/17 10:23:42;;;;;;;;;21.50;20.75;;;;;23.68;54.25;102068.97;5103221;27;45279;-52
2021/07/17 10:26:09;;;;;;;;;23.50;20.00;;;;;23.72;54.46;102077.72;5103221;27;45283;-51
2021/07/17 10:28:35;;;;;;;;;23.00;21.75;;;;;23.74;54.09;102070.47;5103119;27;45181;-52
2021/07/17 10:31:02;;;;;;;;;23.25;20.00;;;;;23.78;54.12;102069.38;5102711;27;45335;-49
2021/07/17 10:33:31;;;;;;;;;25.25;22.00;;;;;23.82;54.23;102070.09;5102995;27;45340;-51
2021/07/17 10:36:04;;;;;;;;;22.25;20.75;;;;;23.85;54.23;102065.44;5099823;27;45351;-53
2021/07/17 10:38:34;;;;;;;;;26.00;24.75;;;;;23.88;54.46;102064.44;5100030;27;45215;-51
2021/07/17 10:41:00;;;;;;;;;25.25;20.75;;;;;23.90;54.01;102065.22;5084660;27;45394;-52
2021/07/17 10:43:27;;;;;;;;;26.00;22.00;;;;;23.91;54.33;102056.28;5102523;27;46305;-52
2021/07/17 10:45:52;;;;;;;;;25.75;20.25;;;;;23.94;54.21;102052.56;5097450;27;45265;-51
2021/07/17 10:48:27;;;;;;;;;24.25;19.75;;;;;23.98;54.25;102059.50;5100100;27;45321;-54
2021/07/17 10:50:53;;;;;;;;;21.75;18.75;;;;;24.00;54.12;102047.75;5101312;27;45536;-50
2021/07/17 10:53:49;;;;;;;;;23.00;22.25;;;;;24.02;53.88;102045.84;5087835;27;45396;-52
2021/07/17 10:56:26;;;;;;;;;23.25;20.00;;;;;24.07;54.03;102050.97;5083265;27;45292;-52
2021/07/17 10:58:53;;;;;;;;;26.00;24.00;;;;;24.11;53.84;102049.91;5082150;28;45293;-49
2021/07/17 11:01:19;;;;;;;;;28.50;24.00;;;;;24.15;54.11;102045.22;5081779;27;45227;-52
2021/07/17 11:03:45;;;;;;;;;23.50;19.00;;;;;24.18;53.79;102039.69;5081835;28;46617;-51
2021/07/17 11:06:29;;;;;;;;;29.50;21.75;;;;;24.23;53.67;102052.91;5081947;27;45288;-51